sensor_id;sensor_type;location;lat;lon;timestamp;P1;durP1;ratioP1;P2;durP2;ratioP2
50241;SDS011;36126;43.222;27.874;2022-09-27T00:00:28;14.40;;;8.95;;
50241;SDS011;36126;43.222;27.874;2022-09-27T00:02:54;14.68;;;9.55;;
50241;SDS011;36126;43.222;27.874;2022-09-27T00:05:20;13.45;;;9.32;;
50241;SDS011;36126;43.222;27.874;2022-09-27T00:07:46;22.98;;;9.68;;
50241;SDS011;36126;43.222;27.874;2022-09-27T00:10:11;17.15;;;11.02;;
50241;SDS011;36126;43.222;27.874;2022-09-27T00:12:37;15.98;;;9.55;;
50241;SDS011;36126;43.222;27.874;2022-09-27T00:15:03;20.63;;;9.98;;
50241;SDS011;36126;43.222;27.874;2022-09-27T00:17:31;15.73;;;9.20;;
50241;SDS011;36126;43.222;27.874;2022-09-27T00:20:00;16.52;;;10.52;;
50241;SDS011;36126;43.222;27.874;2022-09-27T00:22:27;16.13;;;10.38;;
50241;SDS011;36126;43.222;27.874;2022-09-27T00:24:53;17.00;;;11.05;;
50241;SDS011;36126;43.222;27.874;2022-09-27T00:27:19;11.73;;;9.88;;
50241;SDS011;36126;43.222;27.874;2022-09-27T00:29:45;17.90;;;10.38;;
50241;SDS011;36126;43.222;27.874;2022-09-27T00:32:12;18.38;;;11.00;;
50241;SDS011;36126;43.222;27.874;2022-09-27T00:34:38;15.55;;;10.30;;
50241;SDS011;36126;43.222;27.874;2022-09-27T00:37:05;18.95;;;10.73;;
50241;SDS011;36126;43.222;27.874;2022-09-27T00:39:31;13.65;;;9.05;;
50241;SDS011;36126;43.222;27.874;2022-09-27T00:41:57;14.52;;;10.02;;
50241;SDS011;36126;43.222;27.874;2022-09-27T00:52:20;15.30;;;9.77;;
50241;SDS011;36126;43.222;27.874;2022-09-27T00:54:52;13.88;;;9.13;;
50241;SDS011;36126;43.222;27.874;2022-09-27T00:57:24;10.90;;;8.70;;
50241;SDS011;36126;43.222;27.874;2022-09-27T01:00:00;13.30;;;8.63;;
50241;SDS011;36126;43.222;27.874;2022-09-27T01:02:33;13.00;;;9.20;;
50241;SDS011;36126;43.222;27.874;2022-09-27T01:05:02;16.15;;;8.75;;
50241;SDS011;36126;43.222;27.874;2022-09-27T01:07:28;16.05;;;8.93;;
50241;SDS011;36126;43.222;27.874;2022-09-27T01:09:55;13.02;;;8.75;;
50241;SDS011;36126;43.222;27.874;2022-09-27T01:18:05;15.52;;;8.95;;
50241;SDS011;36126;43.222;27.874;2022-09-27T01:29:09;10.70;;;8.13;;
50241;SDS011;36126;43.222;27.874;2022-09-27T01:31:58;10.55;;;8.18;;
50241;SDS011;36126;43.222;27.874;2022-09-27T01:37:02;14.95;;;8.63;;
50241;SDS011;36126;43.222;27.874;2022-09-27T01:45:32;15.15;;;9.57;;
50241;SDS011;36126;43.222;27.874;2022-09-27T01:48:03;21.42;;;9.60;;
50241;SDS011;36126;43.222;27.874;2022-09-27T01:50:51;17.65;;;9.98;;
50241;SDS011;36126;43.222;27.874;2022-09-27T01:53:38;11.50;;;8.40;;
50241;SDS011;36126;43.222;27.874;2022-09-27T01:58:57;11.73;;;8.27;;
50241;SDS011;36126;43.222;27.874;2022-09-27T02:01:35;14.95;;;8.18;;
50241;SDS011;36126;43.222;27.874;2022-09-27T02:04:04;14.65;;;8.30;;
50241;SDS011;36126;43.222;27.874;2022-09-27T02:06:35;13.23;;;8.50;;
50241;SDS011;36126;43.222;27.874;2022-09-27T02:09:11;14.23;;;8.15;;
50241;SDS011;36126;43.222;27.874;2022-09-27T02:11:44;12.10;;;7.85;;
50241;SDS011;36126;43.222;27.874;2022-09-27T02:16:50;11.20;;;8.07;;
50241;SDS011;36126;43.222;27.874;2022-09-27T02:24:58;14.25;;;7.60;;
50241;SDS011;36126;43.222;27.874;2022-09-27T02:30:30;13.63;;;7.60;;
50241;SDS011;36126;43.222;27.874;2022-09-27T02:32:56;17.67;;;7.82;;
50241;SDS011;36126;43.222;27.874;2022-09-27T02:35:31;15.80;;;9.30;;
50241;SDS011;36126;43.222;27.874;2022-09-27T02:37:59;12.32;;;7.57;;
50241;SDS011;36126;43.222;27.874;2022-09-27T02:40:28;16.13;;;8.10;;
50241;SDS011;36126;43.222;27.874;2022-09-27T02:42:56;10.40;;;8.18;;
50241;SDS011;36126;43.222;27.874;2022-09-27T02:45:23;13.80;;;8.02;;
50241;SDS011;36126;43.222;27.874;2022-09-27T02:53:40;13.98;;;7.65;;
50241;SDS011;36126;43.222;27.874;2022-09-27T02:59:19;22.27;;;8.60;;
50241;SDS011;36126;43.222;27.874;2022-09-27T03:04:36;11.23;;;8.30;;
50241;SDS011;36126;43.222;27.874;2022-09-27T03:07:09;12.95;;;8.15;;
50241;SDS011;36126;43.222;27.874;2022-09-27T03:09:44;10.25;;;7.90;;
50241;SDS011;36126;43.222;27.874;2022-09-27T03:12:12;16.70;;;8.90;;
50241;SDS011;36126;43.222;27.874;2022-09-27T03:14:38;17.88;;;8.27;;
50241;SDS011;36126;43.222;27.874;2022-09-27T03:17:04;18.63;;;8.20;;
50241;SDS011;36126;43.222;27.874;2022-09-27T03:19:30;17.52;;;9.02;;
50241;SDS011;36126;43.222;27.874;2022-09-27T03:21:56;17.17;;;9.38;;
50241;SDS011;36126;43.222;27.874;2022-09-27T03:24:21;22.95;;;9.70;;
50241;SDS011;36126;43.222;27.874;2022-09-27T03:26:47;17.00;;;9.02;;
50241;SDS011;36126;43.222;27.874;2022-09-27T03:29:12;15.98;;;8.98;;
50241;SDS011;36126;43.222;27.874;2022-09-27T03:31:38;17.05;;;9.18;;
50241;SDS011;36126;43.222;27.874;2022-09-27T03:34:04;28.05;;;9.52;;
50241;SDS011;36126;43.222;27.874;2022-09-27T03:36:29;21.13;;;9.23;;
50241;SDS011;36126;43.222;27.874;2022-09-27T03:38:55;16.20;;;9.93;;
50241;SDS011;36126;43.222;27.874;2022-09-27T03:41:20;19.38;;;10.40;;
50241;SDS011;36126;43.222;27.874;2022-09-27T03:43:46;19.70;;;10.18;;
50241;SDS011;36126;43.222;27.874;2022-09-27T03:46:12;16.67;;;9.35;;
50241;SDS011;36126;43.222;27.874;2022-09-27T03:48:37;24.77;;;9.50;;
50241;SDS011;36126;43.222;27.874;2022-09-27T03:51:03;22.25;;;11.15;;
50241;SDS011;36126;43.222;27.874;2022-09-27T03:53:29;22.80;;;10.55;;
50241;SDS011;36126;43.222;27.874;2022-09-27T03:55:55;21.45;;;9.88;;
50241;SDS011;36126;43.222;27.874;2022-09-27T03:58:20;15.32;;;10.05;;
50241;SDS011;36126;43.222;27.874;2022-09-27T04:00:46;25.35;;;10.98;;
50241;SDS011;36126;43.222;27.874;2022-09-27T04:03:12;17.23;;;10.45;;
50241;SDS011;36126;43.222;27.874;2022-09-27T04:05:38;26.38;;;10.60;;
50241;SDS011;36126;43.222;27.874;2022-09-27T04:08:04;23.88;;;11.48;;
50241;SDS011;36126;43.222;27.874;2022-09-27T04:10:35;27.00;;;11.80;;
50241;SDS011;36126;43.222;27.874;2022-09-27T04:13:00;26.27;;;12.50;;
50241;SDS011;36126;43.222;27.874;2022-09-27T04:15:26;21.30;;;13.10;;
50241;SDS011;36126;43.222;27.874;2022-09-27T04:17:51;22.50;;;12.95;;
50241;SDS011;36126;43.222;27.874;2022-09-27T04:20:17;21.23;;;13.23;;
50241;SDS011;36126;43.222;27.874;2022-09-27T04:22:42;28.30;;;13.13;;
50241;SDS011;36126;43.222;27.874;2022-09-27T04:25:09;39.95;;;17.75;;
50241;SDS011;36126;43.222;27.874;2022-09-27T04:27:36;34.53;;;13.52;;
50241;SDS011;36126;43.222;27.874;2022-09-27T04:30:02;22.27;;;13.30;;
50241;SDS011;36126;43.222;27.874;2022-09-27T04:32:30;24.90;;;13.68;;
50241;SDS011;36126;43.222;27.874;2022-09-27T04:34:55;33.92;;;14.85;;
50241;SDS011;36126;43.222;27.874;2022-09-27T04:37:39;28.80;;;15.15;;
50241;SDS011;36126;43.222;27.874;2022-09-27T04:40:06;29.83;;;14.80;;
50241;SDS011;36126;43.222;27.874;2022-09-27T04:42:31;35.38;;;15.68;;
50241;SDS011;36126;43.222;27.874;2022-09-27T04:44:58;34.38;;;15.70;;
50241;SDS011;36126;43.222;27.874;2022-09-27T04:47:23;53.83;;;17.50;;
50241;SDS011;36126;43.222;27.874;2022-09-27T04:49:49;31.05;;;14.07;;
50241;SDS011;36126;43.222;27.874;2022-09-27T04:52:14;68.93;;;18.08;;
50241;SDS011;36126;43.222;27.874;2022-09-27T04:54:40;47.70;;;15.95;;
50241;SDS011;36126;43.222;27.874;2022-09-27T04:57:06;31.70;;;15.50;;
50241;SDS011;36126;43.222;27.874;2022-09-27T04:59:32;43.83;;;16.77;;
50241;SDS011;36126;43.222;27.874;2022-09-27T05:01:58;53.08;;;27.40;;
50241;SDS011;36126;43.222;27.874;2022-09-27T05:04:26;39.55;;;15.40;;
50241;SDS011;36126;43.222;27.874;2022-09-27T05:06:52;45.55;;;17.58;;
50241;SDS011;36126;43.222;27.874;2022-09-27T05:09:18;42.15;;;15.27;;
50241;SDS011;36126;43.222;27.874;2022-09-27T05:11:44;40.58;;;15.52;;
50241;SDS011;36126;43.222;27.874;2022-09-27T05:14:09;39.15;;;15.50;;
50241;SDS011;36126;43.222;27.874;2022-09-27T05:16:35;46.28;;;16.13;;
50241;SDS011;36126;43.222;27.874;2022-09-27T05:19:02;44.40;;;16.35;;
50241;SDS011;36126;43.222;27.874;2022-09-27T05:21:27;44.45;;;16.70;;
50241;SDS011;36126;43.222;27.874;2022-09-27T05:23:53;40.38;;;16.15;;
50241;SDS011;36126;43.222;27.874;2022-09-27T05:26:19;37.25;;;16.48;;
50241;SDS011;36126;43.222;27.874;2022-09-27T05:28:44;35.72;;;17.75;;
50241;SDS011;36126;43.222;27.874;2022-09-27T05:31:11;49.83;;;17.65;;
50241;SDS011;36126;43.222;27.874;2022-09-27T05:33:38;40.50;;;17.27;;
50241;SDS011;36126;43.222;27.874;2022-09-27T05:36:05;33.05;;;16.00;;
50241;SDS011;36126;43.222;27.874;2022-09-27T05:38:33;43.53;;;17.02;;
50241;SDS011;36126;43.222;27.874;2022-09-27T05:40:59;32.05;;;15.93;;
50241;SDS011;36126;43.222;27.874;2022-09-27T05:43:25;46.53;;;20.65;;
50241;SDS011;36126;43.222;27.874;2022-09-27T05:45:52;45.63;;;20.45;;
50241;SDS011;36126;43.222;27.874;2022-09-27T05:48:18;59.67;;;19.98;;
50241;SDS011;36126;43.222;27.874;2022-09-27T05:50:44;41.53;;;17.33;;
50241;SDS011;36126;43.222;27.874;2022-09-27T05:53:09;35.85;;;13.70;;
50241;SDS011;36126;43.222;27.874;2022-09-27T05:55:35;49.17;;;25.67;;
50241;SDS011;36126;43.222;27.874;2022-09-27T05:58:02;26.35;;;12.45;;
50241;SDS011;36126;43.222;27.874;2022-09-27T06:00:30;23.90;;;13.32;;
50241;SDS011;36126;43.222;27.874;2022-09-27T06:02:57;20.42;;;9.52;;
50241;SDS011;36126;43.222;27.874;2022-09-27T06:05:28;18.67;;;10.90;;
50241;SDS011;36126;43.222;27.874;2022-09-27T06:07:59;14.20;;;7.30;;
50241;SDS011;36126;43.222;27.874;2022-09-27T06:10:26;20.15;;;7.50;;
50241;SDS011;36126;43.222;27.874;2022-09-27T06:12:52;19.95;;;7.00;;
50241;SDS011;36126;43.222;27.874;2022-09-27T06:15:18;21.00;;;7.72;;
50241;SDS011;36126;43.222;27.874;2022-09-27T06:17:43;28.17;;;13.30;;
50241;SDS011;36126;43.222;27.874;2022-09-27T06:20:09;13.55;;;7.15;;
50241;SDS011;36126;43.222;27.874;2022-09-27T06:22:35;13.63;;;6.72;;
50241;SDS011;36126;43.222;27.874;2022-09-27T06:25:01;18.70;;;7.90;;
50241;SDS011;36126;43.222;27.874;2022-09-27T06:27:28;15.38;;;7.55;;
50241;SDS011;36126;43.222;27.874;2022-09-27T06:29:57;16.02;;;6.18;;
50241;SDS011;36126;43.222;27.874;2022-09-27T06:32:22;13.00;;;6.22;;
50241;SDS011;36126;43.222;27.874;2022-09-27T06:34:48;12.90;;;6.80;;
50241;SDS011;36126;43.222;27.874;2022-09-27T06:37:13;16.17;;;5.45;;
50241;SDS011;36126;43.222;27.874;2022-09-27T06:39:39;8.60;;;5.38;;
50241;SDS011;36126;43.222;27.874;2022-09-27T06:42:05;15.20;;;5.93;;
50241;SDS011;36126;43.222;27.874;2022-09-27T06:44:31;7.60;;;6.00;;
50241;SDS011;36126;43.222;27.874;2022-09-27T06:46:57;9.68;;;4.43;;
50241;SDS011;36126;43.222;27.874;2022-09-27T06:49:22;6.30;;;4.57;;
50241;SDS011;36126;43.222;27.874;2022-09-27T06:51:49;11.90;;;8.13;;
50241;SDS011;36126;43.222;27.874;2022-09-27T06:54:16;13.20;;;5.97;;
50241;SDS011;36126;43.222;27.874;2022-09-27T06:56:42;12.50;;;5.43;;
50241;SDS011;36126;43.222;27.874;2022-09-27T06:59:07;11.48;;;5.50;;
50241;SDS011;36126;43.222;27.874;2022-09-27T07:01:52;14.35;;;6.15;;
50241;SDS011;36126;43.222;27.874;2022-09-27T07:04:18;15.63;;;5.78;;
50241;SDS011;36126;43.222;27.874;2022-09-27T07:06:44;11.27;;;5.38;;
50241;SDS011;36126;43.222;27.874;2022-09-27T07:09:09;11.55;;;5.68;;
50241;SDS011;36126;43.222;27.874;2022-09-27T07:11:35;20.55;;;9.50;;
50241;SDS011;36126;43.222;27.874;2022-09-27T07:14:01;13.50;;;6.68;;
50241;SDS011;36126;43.222;27.874;2022-09-27T07:16:29;17.95;;;9.63;;
50241;SDS011;36126;43.222;27.874;2022-09-27T07:19:04;56.35;;;34.67;;
50241;SDS011;36126;43.222;27.874;2022-09-27T07:21:31;15.25;;;6.30;;
50241;SDS011;36126;43.222;27.874;2022-09-27T07:23:57;21.52;;;9.73;;
50241;SDS011;36126;43.222;27.874;2022-09-27T07:26:23;11.70;;;5.05;;
50241;SDS011;36126;43.222;27.874;2022-09-27T07:28:49;5.55;;;4.63;;
50241;SDS011;36126;43.222;27.874;2022-09-27T07:31:14;7.07;;;5.10;;
50241;SDS011;36126;43.222;27.874;2022-09-27T07:33:41;11.48;;;8.50;;
50241;SDS011;36126;43.222;27.874;2022-09-27T07:36:07;18.70;;;8.68;;
50241;SDS011;36126;43.222;27.874;2022-09-27T07:38:34;13.02;;;6.78;;
50241;SDS011;36126;43.222;27.874;2022-09-27T07:41:12;6.88;;;4.28;;
50241;SDS011;36126;43.222;27.874;2022-09-27T07:43:39;4.80;;;3.75;;
50241;SDS011;36126;43.222;27.874;2022-09-27T07:46:05;6.30;;;3.80;;
50241;SDS011;36126;43.222;27.874;2022-09-27T07:48:32;6.10;;;3.63;;
50241;SDS011;36126;43.222;27.874;2022-09-27T07:50:57;9.50;;;5.45;;
50241;SDS011;36126;43.222;27.874;2022-09-27T07:53:24;16.83;;;11.40;;
50241;SDS011;36126;43.222;27.874;2022-09-27T07:55:50;10.85;;;5.03;;
50241;SDS011;36126;43.222;27.874;2022-09-27T07:58:21;9.00;;;4.30;;
50241;SDS011;36126;43.222;27.874;2022-09-27T08:00:46;5.22;;;4.00;;
50241;SDS011;36126;43.222;27.874;2022-09-27T08:03:13;10.85;;;4.40;;
50241;SDS011;36126;43.222;27.874;2022-09-27T08:05:40;11.52;;;4.50;;
50241;SDS011;36126;43.222;27.874;2022-09-27T08:08:06;10.65;;;8.48;;
50241;SDS011;36126;43.222;27.874;2022-09-27T08:10:32;14.27;;;5.60;;
50241;SDS011;36126;43.222;27.874;2022-09-27T08:12:59;17.75;;;8.43;;
50241;SDS011;36126;43.222;27.874;2022-09-27T08:15:27;14.68;;;9.38;;
50241;SDS011;36126;43.222;27.874;2022-09-27T08:17:53;28.77;;;15.45;;
50241;SDS011;36126;43.222;27.874;2022-09-27T08:20:19;5.85;;;3.83;;
50241;SDS011;36126;43.222;27.874;2022-09-27T08:22:45;4.90;;;3.80;;
50241;SDS011;36126;43.222;27.874;2022-09-27T08:25:11;7.43;;;4.38;;
50241;SDS011;36126;43.222;27.874;2022-09-27T08:27:38;12.60;;;4.28;;
50241;SDS011;36126;43.222;27.874;2022-09-27T08:30:03;16.80;;;11.10;;
50241;SDS011;36126;43.222;27.874;2022-09-27T08:32:29;5.43;;;4.35;;
50241;SDS011;36126;43.222;27.874;2022-09-27T08:34:55;8.57;;;4.60;;
50241;SDS011;36126;43.222;27.874;2022-09-27T08:37:21;7.88;;;4.07;;
50241;SDS011;36126;43.222;27.874;2022-09-27T08:39:47;12.40;;;4.22;;
50241;SDS011;36126;43.222;27.874;2022-09-27T08:47:30;6.05;;;3.88;;
50241;SDS011;36126;43.222;27.874;2022-09-27T08:52:40;13.35;;;6.05;;
50241;SDS011;36126;43.222;27.874;2022-09-27T08:55:31;6.68;;;3.58;;
50241;SDS011;36126;43.222;27.874;2022-09-27T08:58:01;7.45;;;3.53;;
50241;SDS011;36126;43.222;27.874;2022-09-27T09:00:29;9.13;;;3.83;;
50241;SDS011;36126;43.222;27.874;2022-09-27T09:02:55;5.18;;;3.40;;
50241;SDS011;36126;43.222;27.874;2022-09-27T09:05:32;8.25;;;3.88;;
50241;SDS011;36126;43.222;27.874;2022-09-27T09:16:01;7.32;;;3.90;;
50241;SDS011;36126;43.222;27.874;2022-09-27T09:21:44;14.93;;;4.68;;
50241;SDS011;36126;43.222;27.874;2022-09-27T09:24:30;28.27;;;14.68;;
50241;SDS011;36126;43.222;27.874;2022-09-27T09:32:34;12.77;;;3.88;;
50241;SDS011;36126;43.222;27.874;2022-09-27T09:35:20;7.88;;;5.00;;
50241;SDS011;36126;43.222;27.874;2022-09-27T09:37:56;9.95;;;5.65;;
50241;SDS011;36126;43.222;27.874;2022-09-27T09:40:27;7.20;;;5.30;;
50241;SDS011;36126;43.222;27.874;2022-09-27T09:43:24;9.27;;;4.63;;
50241;SDS011;36126;43.222;27.874;2022-09-27T09:46:22;11.38;;;5.90;;
50241;SDS011;36126;43.222;27.874;2022-09-27T09:51:54;9.13;;;4.13;;
50241;SDS011;36126;43.222;27.874;2022-09-27T09:58:11;8.82;;;4.50;;
50241;SDS011;36126;43.222;27.874;2022-09-27T10:00:22;8.38;;;4.32;;
50241;SDS011;36126;43.222;27.874;2022-09-27T10:02:48;10.55;;;4.70;;
50241;SDS011;36126;43.222;27.874;2022-09-27T10:05:23;11.35;;;6.18;;
50241;SDS011;36126;43.222;27.874;2022-09-27T10:07:51;16.63;;;9.27;;
50241;SDS011;36126;43.222;27.874;2022-09-27T10:10:21;19.65;;;9.48;;
50241;SDS011;36126;43.222;27.874;2022-09-27T10:12:47;10.60;;;6.40;;
50241;SDS011;36126;43.222;27.874;2022-09-27T10:15:32;15.70;;;7.45;;
50241;SDS011;36126;43.222;27.874;2022-09-27T10:17:58;13.27;;;4.35;;
50241;SDS011;36126;43.222;27.874;2022-09-27T10:23:28;8.30;;;4.30;;
50241;SDS011;36126;43.222;27.874;2022-09-27T10:25:58;15.75;;;9.63;;
50241;SDS011;36126;43.222;27.874;2022-09-27T10:28:38;21.55;;;7.88;;
50241;SDS011;36126;43.222;27.874;2022-09-27T10:31:08;9.63;;;4.07;;
50241;SDS011;36126;43.222;27.874;2022-09-27T10:33:37;14.95;;;5.95;;
50241;SDS011;36126;43.222;27.874;2022-09-27T10:36:22;31.90;;;20.67;;
50241;SDS011;36126;43.222;27.874;2022-09-27T10:47:50;26.33;;;14.32;;
50241;SDS011;36126;43.222;27.874;2022-09-27T10:50:21;11.23;;;4.65;;
50241;SDS011;36126;43.222;27.874;2022-09-27T10:53:06;5.60;;;3.10;;
50241;SDS011;36126;43.222;27.874;2022-09-27T10:55:38;10.93;;;4.38;;
50241;SDS011;36126;43.222;27.874;2022-09-27T10:58:04;11.30;;;4.25;;
50241;SDS011;36126;43.222;27.874;2022-09-27T11:00:32;8.02;;;3.40;;
50241;SDS011;36126;43.222;27.874;2022-09-27T11:03:02;13.80;;;4.00;;
50241;SDS011;36126;43.222;27.874;2022-09-27T11:05:33;10.27;;;3.80;;
50241;SDS011;36126;43.222;27.874;2022-09-27T11:08:02;10.50;;;4.07;;
50241;SDS011;36126;43.222;27.874;2022-09-27T11:11:05;11.18;;;5.28;;
50241;SDS011;36126;43.222;27.874;2022-09-27T11:13:31;9.80;;;3.90;;
50241;SDS011;36126;43.222;27.874;2022-09-27T11:16:11;10.00;;;4.45;;
50241;SDS011;36126;43.222;27.874;2022-09-27T11:22:12;11.60;;;4.45;;
50241;SDS011;36126;43.222;27.874;2022-09-27T11:35:36;8.93;;;3.97;;
50241;SDS011;36126;43.222;27.874;2022-09-27T11:38:25;7.97;;;4.72;;
50241;SDS011;36126;43.222;27.874;2022-09-27T11:41:06;12.75;;;4.20;;
50241;SDS011;36126;43.222;27.874;2022-09-27T11:56:59;7.40;;;3.72;;
50241;SDS011;36126;43.222;27.874;2022-09-27T12:10:46;11.35;;;5.22;;
50241;SDS011;36126;43.222;27.874;2022-09-27T12:13:23;13.05;;;5.30;;
50241;SDS011;36126;43.222;27.874;2022-09-27T12:16:04;8.93;;;5.85;;
50241;SDS011;36126;43.222;27.874;2022-09-27T12:18:36;14.25;;;5.85;;
50241;SDS011;36126;43.222;27.874;2022-09-27T12:21:03;8.80;;;4.82;;
50241;SDS011;36126;43.222;27.874;2022-09-27T12:23:40;11.38;;;4.53;;
50241;SDS011;36126;43.222;27.874;2022-09-27T12:26:25;11.70;;;5.22;;
50241;SDS011;36126;43.222;27.874;2022-09-27T12:28:57;11.07;;;7.43;;
50241;SDS011;36126;43.222;27.874;2022-09-27T12:31:30;10.80;;;5.55;;
50241;SDS011;36126;43.222;27.874;2022-09-27T12:34:03;11.77;;;5.38;;
50241;SDS011;36126;43.222;27.874;2022-09-27T12:36:40;25.42;;;6.30;;
50241;SDS011;36126;43.222;27.874;2022-09-27T12:41:41;12.35;;;6.22;;
50241;SDS011;36126;43.222;27.874;2022-09-27T12:44:11;14.23;;;6.63;;
50241;SDS011;36126;43.222;27.874;2022-09-27T12:52:14;36.20;;;13.50;;
50241;SDS011;36126;43.222;27.874;2022-09-27T12:57:36;15.82;;;5.78;;
50241;SDS011;36126;43.222;27.874;2022-09-27T13:03:04;10.93;;;5.38;;
50241;SDS011;36126;43.222;27.874;2022-09-27T13:14:04;13.23;;;5.88;;
50241;SDS011;36126;43.222;27.874;2022-09-27T13:16:44;8.80;;;6.03;;
50241;SDS011;36126;43.222;27.874;2022-09-27T13:22:09;15.65;;;6.15;;
50241;SDS011;36126;43.222;27.874;2022-09-27T13:24:53;21.60;;;6.00;;
50241;SDS011;36126;43.222;27.874;2022-09-27T13:38:30;10.25;;;5.20;;
50241;SDS011;36126;43.222;27.874;2022-09-27T13:41:18;10.65;;;5.22;;
50241;SDS011;36126;43.222;27.874;2022-09-27T13:46:50;16.15;;;5.68;;
50241;SDS011;36126;43.222;27.874;2022-09-27T13:49:23;19.33;;;7.00;;
50241;SDS011;36126;43.222;27.874;2022-09-27T13:52:13;12.15;;;7.57;;
50241;SDS011;36126;43.222;27.874;2022-09-27T13:55:00;20.98;;;10.07;;
50241;SDS011;36126;43.222;27.874;2022-09-27T13:57:39;19.60;;;11.63;;
50241;SDS011;36126;43.222;27.874;2022-09-27T14:00:07;16.60;;;7.80;;
50241;SDS011;36126;43.222;27.874;2022-09-27T14:05:29;28.95;;;11.30;;
50241;SDS011;36126;43.222;27.874;2022-09-27T14:11:14;16.17;;;7.55;;
50241;SDS011;36126;43.222;27.874;2022-09-27T14:13:45;9.98;;;5.80;;
50241;SDS011;36126;43.222;27.874;2022-09-27T14:16:14;9.00;;;4.93;;
50241;SDS011;36126;43.222;27.874;2022-09-27T14:18:51;12.57;;;5.78;;
50241;SDS011;36126;43.222;27.874;2022-09-27T14:27:02;14.32;;;6.32;;
50241;SDS011;36126;43.222;27.874;2022-09-27T14:29:29;11.55;;;6.03;;
50241;SDS011;36126;43.222;27.874;2022-09-27T14:32:02;15.60;;;6.45;;
50241;SDS011;36126;43.222;27.874;2022-09-27T14:34:29;13.05;;;8.20;;
50241;SDS011;36126;43.222;27.874;2022-09-27T14:36:54;19.10;;;10.40;;
50241;SDS011;36126;43.222;27.874;2022-09-27T14:39:38;15.25;;;9.40;;
50241;SDS011;36126;43.222;27.874;2022-09-27T14:42:16;14.85;;;6.93;;
50241;SDS011;36126;43.222;27.874;2022-09-27T14:44:47;12.50;;;6.50;;
50241;SDS011;36126;43.222;27.874;2022-09-27T14:47:23;12.32;;;7.28;;
50241;SDS011;36126;43.222;27.874;2022-09-27T14:49:55;12.77;;;6.95;;
50241;SDS011;36126;43.222;27.874;2022-09-27T14:52:28;15.13;;;7.78;;
50241;SDS011;36126;43.222;27.874;2022-09-27T14:57:32;23.10;;;8.13;;
50241;SDS011;36126;43.222;27.874;2022-09-27T15:00:00;21.73;;;8.98;;
50241;SDS011;36126;43.222;27.874;2022-09-27T15:02:34;13.93;;;6.95;;
50241;SDS011;36126;43.222;27.874;2022-09-27T15:05:02;19.33;;;7.05;;
50241;SDS011;36126;43.222;27.874;2022-09-27T15:07:27;22.48;;;7.60;;
50241;SDS011;36126;43.222;27.874;2022-09-27T15:09:55;18.13;;;6.78;;
50241;SDS011;36126;43.222;27.874;2022-09-27T15:12:23;19.17;;;8.40;;
50241;SDS011;36126;43.222;27.874;2022-09-27T15:14:50;17.00;;;6.47;;
50241;SDS011;36126;43.222;27.874;2022-09-27T15:17:18;14.82;;;6.57;;
50241;SDS011;36126;43.222;27.874;2022-09-27T15:19:55;20.50;;;6.85;;
50241;SDS011;36126;43.222;27.874;2022-09-27T15:25:20;30.02;;;6.53;;
50241;SDS011;36126;43.222;27.874;2022-09-27T15:27:50;16.98;;;7.15;;
50241;SDS011;36126;43.222;27.874;2022-09-27T15:30:19;16.75;;;6.40;;
50241;SDS011;36126;43.222;27.874;2022-09-27T15:32:51;16.00;;;7.43;;
50241;SDS011;36126;43.222;27.874;2022-09-27T15:35:29;17.15;;;6.75;;
50241;SDS011;36126;43.222;27.874;2022-09-27T15:43:26;19.63;;;7.20;;
50241;SDS011;36126;43.222;27.874;2022-09-27T15:46:00;20.40;;;7.65;;
50241;SDS011;36126;43.222;27.874;2022-09-27T15:48:29;22.60;;;7.60;;
50241;SDS011;36126;43.222;27.874;2022-09-27T15:50:57;19.88;;;6.60;;
50241;SDS011;36126;43.222;27.874;2022-09-27T15:56:01;19.60;;;7.28;;
50241;SDS011;36126;43.222;27.874;2022-09-27T15:58:30;16.27;;;6.85;;
50241;SDS011;36126;43.222;27.874;2022-09-27T16:00:58;25.80;;;7.95;;
50241;SDS011;36126;43.222;27.874;2022-09-27T16:03:29;18.63;;;7.47;;
50241;SDS011;36126;43.222;27.874;2022-09-27T16:05:56;17.52;;;7.13;;
50241;SDS011;36126;43.222;27.874;2022-09-27T16:08:24;18.13;;;7.60;;
50241;SDS011;36126;43.222;27.874;2022-09-27T16:10:51;23.40;;;7.78;;
50241;SDS011;36126;43.222;27.874;2022-09-27T16:13:19;14.23;;;6.63;;
50241;SDS011;36126;43.222;27.874;2022-09-27T16:15:45;21.00;;;8.10;;
50241;SDS011;36126;43.222;27.874;2022-09-27T16:18:12;15.82;;;7.10;;
50241;SDS011;36126;43.222;27.874;2022-09-27T16:20:38;19.25;;;7.80;;
50241;SDS011;36126;43.222;27.874;2022-09-27T16:23:04;19.73;;;8.38;;
50241;SDS011;36126;43.222;27.874;2022-09-27T16:25:30;32.63;;;10.60;;
50241;SDS011;36126;43.222;27.874;2022-09-27T16:27:58;15.93;;;7.15;;
50241;SDS011;36126;43.222;27.874;2022-09-27T16:30:25;24.40;;;7.35;;
50241;SDS011;36126;43.222;27.874;2022-09-27T16:32:51;31.80;;;14.82;;
50241;SDS011;36126;43.222;27.874;2022-09-27T16:35:18;55.88;;;32.55;;
50241;SDS011;36126;43.222;27.874;2022-09-27T16:37:46;30.08;;;13.52;;
50241;SDS011;36126;43.222;27.874;2022-09-27T16:40:12;23.13;;;11.95;;
50241;SDS011;36126;43.222;27.874;2022-09-27T16:42:39;31.08;;;9.30;;
50241;SDS011;36126;43.222;27.874;2022-09-27T16:45:06;23.75;;;7.38;;
50241;SDS011;36126;43.222;27.874;2022-09-27T16:47:32;18.55;;;6.95;;
50241;SDS011;36126;43.222;27.874;2022-09-27T16:49:59;29.85;;;7.70;;
50241;SDS011;36126;43.222;27.874;2022-09-27T16:52:43;25.30;;;8.82;;
50241;SDS011;36126;43.222;27.874;2022-09-27T16:55:12;22.50;;;7.85;;
50241;SDS011;36126;43.222;27.874;2022-09-27T16:57:42;20.75;;;6.85;;
50241;SDS011;36126;43.222;27.874;2022-09-27T17:00:07;20.83;;;7.53;;
50241;SDS011;36126;43.222;27.874;2022-09-27T17:02:33;25.02;;;8.23;;
50241;SDS011;36126;43.222;27.874;2022-09-27T17:05:00;26.50;;;7.95;;
50241;SDS011;36126;43.222;27.874;2022-09-27T17:07:26;25.02;;;7.78;;
50241;SDS011;36126;43.222;27.874;2022-09-27T17:09:52;22.85;;;7.88;;
50241;SDS011;36126;43.222;27.874;2022-09-27T17:12:17;21.92;;;6.20;;
50241;SDS011;36126;43.222;27.874;2022-09-27T17:14:43;16.90;;;5.60;;
50241;SDS011;36126;43.222;27.874;2022-09-27T17:17:08;19.70;;;7.95;;
50241;SDS011;36126;43.222;27.874;2022-09-27T17:19:34;14.80;;;6.32;;
50241;SDS011;36126;43.222;27.874;2022-09-27T17:22:01;19.70;;;7.22;;
50241;SDS011;36126;43.222;27.874;2022-09-27T17:24:27;13.32;;;6.05;;
50241;SDS011;36126;43.222;27.874;2022-09-27T17:26:53;15.02;;;6.40;;
50241;SDS011;36126;43.222;27.874;2022-09-27T17:29:19;12.13;;;6.13;;
50241;SDS011;36126;43.222;27.874;2022-09-27T17:31:45;16.00;;;6.72;;
50241;SDS011;36126;43.222;27.874;2022-09-27T17:34:11;22.23;;;7.15;;
50241;SDS011;36126;43.222;27.874;2022-09-27T17:36:42;26.98;;;8.95;;
50241;SDS011;36126;43.222;27.874;2022-09-27T17:39:12;20.83;;;6.88;;
50241;SDS011;36126;43.222;27.874;2022-09-27T17:41:39;19.42;;;6.63;;
50241;SDS011;36126;43.222;27.874;2022-09-27T17:44:04;19.80;;;6.22;;
50241;SDS011;36126;43.222;27.874;2022-09-27T17:46:32;21.52;;;7.25;;
50241;SDS011;36126;43.222;27.874;2022-09-27T17:49:00;17.98;;;7.05;;
50241;SDS011;36126;43.222;27.874;2022-09-27T17:51:46;17.45;;;6.45;;
50241;SDS011;36126;43.222;27.874;2022-09-27T17:54:16;23.30;;;6.93;;
50241;SDS011;36126;43.222;27.874;2022-09-27T17:56:44;18.35;;;6.03;;